^^
Station Historical Data
Daily Summary for April 4, 2017 Units:  English    Metric   Both
« Previous Day
Next Day »
Daily Weekly Monthly Yearly Custom
  High: Low: Average:
Temperature: 49.2 °F 44.2 °F 47.2 °F
Dew Point: 48.1 °F 38.0 °F 45.6 °F
Humidity: 97% 68% 94%
Wind Speed: 6.0mph 0.0mph 0.9mph
Wind Gust: 15.0mph - -
Wind- - ESE
Pressure: 29.89 in 29.58 in -
Precipitation: 1.20 in    
Historical Graphs
 
 
Tabular Data for April 4, 2017
Time Temperature Dew Point Pressure Wind Wind Speed Wind Gust Humidity Rainfall Rate (Hourly) Conditions
00:00 48.0 °F 38.0 °F 29.89 in Calm   5.0 mph 68% 0.00 in OVC
00:15 47.2 °F 38.3 °F 29.88 in NE 1.0 mph 4.0 mph 71% 0.00 in OVC
00:30 46.4 °F 38.2 °F 29.88 in North 1.0 mph 6.0 mph 73% 0.00 in OVC
00:45 45.7 °F 38.6 °F 29.86 in NNE 2.0 mph 5.0 mph 76% 0.01 in OVC
01:00 45.5 °F 38.7 °F 29.84 in NNE 2.0 mph 6.0 mph 77% 0.00 in OVC
02:15 44.2 °F 41.2 °F 29.76 in NNE 2.0 mph 10.0 mph 89% 0.04 in -RA
02:30 44.3 °F 41.8 °F 29.77 in NNE 1.0 mph 6.0 mph 91% 0.05 in -RA
02:45 44.4 °F 42.2 °F 29.78 in NNE 2.0 mph 6.0 mph 92% 0.09 in -RA
03:00 44.5 °F 42.6 °F 29.76 in NNE 3.0 mph 9.0 mph 93% 0.05 in -RA
03:15 44.7 °F 43.1 °F 29.75 in NNE 3.0 mph 9.0 mph 94% 0.07 in RA
03:30 45.0 °F 43.4 °F 29.73 in NNE 2.0 mph 8.0 mph 94% 0.14 in RA
03:45 45.4 °F 44.1 °F 29.72 in NNE 2.0 mph 13.0 mph 95% 0.15 in RA
04:00 45.7 °F 44.4 °F 29.72 in NNE 3.0 mph 9.0 mph 95% 0.19 in RA
04:15 46.0 °F 44.6 °F 29.74 in Calm   6.0 mph 95% 0.12 in RA
04:30 46.1 °F 44.7 °F 29.70 in NE 1.0 mph 7.0 mph 95% 0.03 in RA
04:45 46.5 °F 45.4 °F 29.69 in North 2.0 mph 5.0 mph 96% 0.06 in RA
05:00 46.7 °F 45.6 °F 29.67 in NNE 3.0 mph 8.0 mph 96% 0.01 in RA
05:15 46.7 °F 45.6 °F 29.67 in NNE 5.0 mph 15.0 mph 96% 0.02 in RA
05:30 46.6 °F 45.5 °F 29.67 in NNE 2.0 mph 10.0 mph 96% 0.01 in RA
05:45 46.8 °F 45.7 °F 29.66 in NE 6.0 mph 12.0 mph 96% 0.00 in
06:00 46.9 °F 45.8 °F 29.67 in North 3.0 mph 8.0 mph 96% 0.01 in RA
06:15 47.0 °F 45.9 °F 29.66 in NNE 3.0 mph 6.0 mph 96% 0.01 in -RA
06:30 47.1 °F 46.0 °F 29.66 in NNE 1.0 mph 5.0 mph 96% 0.02 in -RA
06:45 47.2 °F 46.1 °F 29.66 in NNW 1.0 mph 9.0 mph 96% 0.01 in -RA
07:00 47.3 °F 46.2 °F 29.66 in NE 1.0 mph 5.0 mph 96% 0.00 in -RA
07:15 47.5 °F 46.4 °F 29.66 in NNE 2.0 mph 6.0 mph 96% 0.00 in -RA
07:30 47.6 °F 46.5 °F 29.65 in ENE 1.0 mph 10.0 mph 96% 0.01 in -RA
07:45 47.8 °F 46.7 °F 29.64 in NNE 1.0 mph 8.0 mph 96% 0.00 in -RA
08:00 47.8 °F 46.7 °F 29.65 in Calm   9.0 mph 96% 0.00 in -RA
08:15 47.9 °F 46.8 °F 29.64 in Calm   5.0 mph 96% 0.00 in -DZ
08:30 47.9 °F 46.8 °F 29.63 in Calm   2.0 mph 96% 0.00 in -DZ
08:45 48.0 °F 46.9 °F 29.63 in Calm   3.0 mph 96% 0.00 in -DZ
09:00 48.1 °F 47.0 °F 29.62 in ENE 1.0 mph 3.0 mph 96% 0.00 in -DZ
09:15 48.3 °F 47.5 °F 29.62 in NNW 1.0 mph 4.0 mph 97% 0.00 in -DZ
09:30 48.1 °F 47.0 °F 29.61 in ENE 1.0 mph 8.0 mph 96% 0.00 in -DZ
09:45 47.9 °F 46.8 °F 29.61 in Calm   7.0 mph 96% 0.00 in -DZ
10:00 47.5 °F 46.4 °F 29.62 in West 1.0 mph 8.0 mph 96% 0.00 in -DZ
10:15 47.4 °F 46.3 °F 29.61 in NE 1.0 mph 4.0 mph 96% 0.00 in -DZ
10:30 47.3 °F 46.2 °F 29.61 in NNE 1.0 mph 3.0 mph 96% 0.00 in -DZ
10:45 47.5 °F 46.7 °F 29.61 in Calm   5.0 mph 97% 0.01 in -DZ
11:00 47.7 °F 46.9 °F 29.61 in North 1.0 mph 3.0 mph 97% 0.00 in -DZ
11:15 47.6 °F 46.5 °F 29.61 in NNE 1.0 mph 4.0 mph 96% 0.00 in -DZ
11:30 47.9 °F 47.1 °F 29.61 in Calm   2.0 mph 97% 0.00 in -DZ
11:45 48.0 °F 47.2 °F 29.60 in North 1.0 mph 4.0 mph 97% 0.00 in -DZ
12:00 48.1 °F 47.3 °F 29.60 in Calm   4.0 mph 97% 0.00 in -DZ
12:15 48.1 °F 47.0 °F 29.59 in NNW 1.0 mph 6.0 mph 96% 0.00 in -DZ
12:30 48.7 °F 47.9 °F 29.58 in Calm   2.0 mph 97% 0.00 in -DZ
12:45 48.8 °F 47.7 °F 29.58 in North 1.0 mph 5.0 mph 96% 0.00 in -DZ
13:00 49.1 °F 48.0 °F 29.59 in Calm   6.0 mph 96% 0.00 in -DZ
13:15 48.8 °F 47.7 °F 29.60 in East 2.0 mph 3.0 mph 96% 0.00 in -DZ
13:30 48.7 °F 47.6 °F 29.60 in West 1.0 mph 2.0 mph 96% 0.00 in -DZ
13:45 48.7 °F 47.6 °F 29.61 in Calm   2.0 mph 96% 0.01 in -DZ
14:00 48.6 °F 47.5 °F 29.61 in West 1.0 mph 4.0 mph 96% 0.00 in -DZ
14:15 48.5 °F 47.4 °F 29.61 in SSE 1.0 mph 2.0 mph 96% 0.00 in -DZ
14:30 48.5 °F 47.4 °F 29.61 in Calm   3.0 mph 96% 0.00 in -DZ
14:45 48.4 °F 47.3 °F 29.62 in Calm   2.0 mph 96% 0.00 in -DZ
15:00 48.6 °F 47.5 °F 29.61 in Calm   2.0 mph 96% 0.01 in -DZ
15:15 48.7 °F 47.6 °F 29.61 in Calm   3.0 mph 96% 0.00 in -DZ
15:30 48.7 °F 47.6 °F 29.61 in Calm   3.0 mph 96% 0.02 in -DZ
15:45 48.7 °F 47.6 °F 29.62 in Calm   5.0 mph 96% 0.01 in -DZ
16:00 49.0 °F 47.9 °F 29.61 in Calm   3.0 mph 96% 0.00 in -DZ
16:15 49.2 °F 48.1 °F 29.62 in Calm   4.0 mph 96% 0.00 in -RA
16:30 49.0 °F 47.6 °F 29.62 in North 2.0 mph 4.0 mph 95% 0.00 in -RA
16:45 49.2 °F 47.8 °F 29.62 in Calm   3.0 mph 95% 0.00 in -RA
17:00 48.8 °F 47.4 °F 29.62 in Calm   4.0 mph 95% 0.01 in -RA
17:15 48.9 °F 47.5 °F 29.63 in Calm   2.0 mph 95% 0.00 in OVC
17:30 49.0 °F 47.6 °F 29.62 in Calm   3.0 mph 95% 0.00 in OVC
17:45 48.9 °F 47.5 °F 29.64 in Calm   2.0 mph 95% 0.00 in OVC
18:00 48.7 °F 47.3 °F 29.64 in Calm   2.0 mph 95% 0.00 in OVC
18:15 48.3 °F 46.7 °F 29.64 in Calm   4.0 mph 94% 0.00 in -DZ
18:30 48.0 °F 46.4 °F 29.65 in South 1.0 mph 3.0 mph 94% 0.00 in -DZ
18:45 47.6 °F 46.0 °F 29.65 in ENE 1.0 mph 3.0 mph 94% 0.00 in -DZ
19:00 47.4 °F 45.8 °F 29.64 in Calm   4.0 mph 94% 0.00 in -DZ
19:15 47.1 °F 45.5 °F 29.64 in Calm   2.0 mph 94% 0.00 in -DZ
19:30 46.7 °F 45.0 °F 29.64 in Calm   2.0 mph 94% 0.00 in -DZ
19:45 46.5 °F 45.1 °F 29.67 in Calm   3.0 mph 95% 0.00 in -DZ
20:00 46.5 °F 45.1 °F 29.67 in Calm   1.0 mph 95% 0.00 in -DZ
20:15 46.4 °F 45.0 °F 29.69 in Calm   1.0 mph 95% 0.00 in OVC
20:30 46.3 °F 44.9 °F 29.70 in Calm   1.0 mph 95% 0.02 in OVC
20:45 46.3 °F 44.9 °F 29.71 in Calm   2.0 mph 95% 0.00 in OVC
21:00 46.0 °F 44.6 °F 29.70 in Calm   1.0 mph 95% 0.00 in OVC
21:15 45.9 °F 44.8 °F 29.71 in Calm     96% 0.00 in OVC
21:30 45.8 °F 44.7 °F 29.73 in WNW 1.0 mph 2.0 mph 96% 0.00 in OVC
21:45 45.6 °F 44.5 °F 29.75 in NW 1.0 mph 2.0 mph 96% 0.00 in OVC
22:00 45.5 °F 44.4 °F 29.75 in Calm   3.0 mph 96% 0.01 in RA
22:15 45.5 °F 44.4 °F 29.75 in Calm   1.0 mph 96% 0.00 in OVC
22:30 45.4 °F 44.3 °F 29.73 in East 1.0 mph 2.0 mph 96% 0.00 in OVC
22:45 45.2 °F 44.1 °F 29.74 in Calm   2.0 mph 96% 0.00 in OVC
23:00 45.1 °F 44.0 °F 29.75 in Calm   1.0 mph 96% 0.00 in OVC
23:15 45.2 °F 44.1 °F 29.75 in Calm   1.0 mph 96% 0.00 in -DZ
23:30 45.2 °F 44.1 °F 29.76 in Calm   1.0 mph 96% 0.00 in -DZ
23:45 44.7 °F 43.6 °F 29.76 in Calm   1.0 mph 96% 0.00 in -DZ
TarryTown NY Weather
Compliments of Weather Underground - 1.5 mb